Terminal Aerodrome Forecast
Issued by NWS

Home | Current Version | Previous Version | Text Only | Print | Product List | Glossary On
Versions: 1 2 3 4 5 6 7 8 9 10 11 12 13 14
577
FTUS44 KLZK 170542
TAFBPK
TAF
KBPK 170542Z 1706/1806 18006KT P6SM VCSH SCT025 OVC100
      TEMPO 1708/1711 5SM BR OVC012
     FM171100 17007KT 4SM -RA SCT007 OVC012
     FM171500 18005KT 3SM BR OVC015
     FM171800 VRB03KT P6SM BKN020=

USA.gov is the U.S. government's official web portal to all federal, state and local government web resources and services.